createdAt,value
2024-02-28T00:02:04.776Z,100509.97
2024-02-28T00:04:31.818Z,100509.28
2024-02-28T00:06:58.747Z,100516.22
2024-02-28T00:09:25.732Z,100512.78
2024-02-28T00:11:52.280Z,100513.53
2024-02-28T00:14:19.230Z,100517.94
2024-02-28T00:16:47.329Z,100511.81
2024-02-28T00:19:14.255Z,100515.38
2024-02-28T00:21:42.404Z,100519.03
2024-02-28T00:24:10.155Z,100515.66
2024-02-28T00:26:37.552Z,100522.53
2024-02-28T00:29:04.316Z,100529.56
2024-02-28T00:31:30.924Z,100523.66
2024-02-28T00:33:57.512Z,100515.13
2024-02-28T00:36:24.268Z,100516.91
2024-02-28T00:38:50.978Z,100519.56
2024-02-28T00:41:17.580Z,100528.19
2024-02-28T00:43:44.239Z,100529.00
2024-02-28T00:46:13.492Z,100525.69
2024-02-28T00:48:40.624Z,100525.56
2024-02-28T00:51:09.313Z,100531.63
2024-02-28T00:53:36.016Z,100518.84
2024-02-28T00:56:02.676Z,100525.75
2024-02-28T00:58:31.480Z,100532.53
2024-02-28T01:00:58.730Z,100528.47
2024-02-28T01:03:25.573Z,100531.88
2024-02-28T01:05:52.761Z,100529.59
2024-02-28T01:08:19.895Z,100535.63
2024-02-28T01:10:47.062Z,100536.56
2024-02-28T01:13:13.997Z,100534.75
2024-02-28T01:15:42.819Z,100546.84
2024-02-28T01:18:10.918Z,100547.84
2024-02-28T01:20:37.762Z,100546.13
2024-02-28T01:23:04.690Z,100551.31
2024-02-28T01:25:31.243Z,100565.00
2024-02-28T01:28:01.235Z,100563.19
2024-02-28T01:30:28.374Z,100567.66
2024-02-28T01:32:55.485Z,100560.81
2024-02-28T01:35:22.295Z,100567.72
2024-02-28T01:37:49.031Z,100556.59
2024-02-28T01:40:16.953Z,100558.34
2024-02-28T01:42:43.538Z,100562.59
2024-02-28T01:45:14.876Z,100559.22
2024-02-28T01:47:43.517Z,100562.66
2024-02-28T01:50:11.896Z,100563.72
2024-02-28T01:52:40.303Z,100568.00
2024-02-28T01:55:07.841Z,100565.44
2024-02-28T01:57:35.043Z,100571.50
2024-02-28T02:00:02.079Z,100573.22
2024-02-28T02:02:31.288Z,100574.06
2024-02-28T02:04:59.094Z,100573.25
2024-02-28T02:07:26.733Z,100574.19
2024-02-28T02:09:54.291Z,100579.38
2024-02-28T02:12:21.238Z,100584.59
2024-02-28T02:14:51.065Z,100585.44
2024-02-28T02:17:17.773Z,100588.88
2024-02-28T02:19:44.773Z,100583.84
2024-02-28T02:22:14.604Z,100587.31
2024-02-28T02:24:41.594Z,100589.91
2024-02-28T02:27:08.805Z,100588.22
2024-02-28T02:29:35.514Z,100597.63
2024-02-28T02:32:02.295Z,100601.94
2024-02-28T02:34:29.175Z,100600.28
2024-02-28T02:36:55.984Z,100600.38
2024-02-28T02:39:22.727Z,100598.75
2024-02-28T02:41:49.333Z,100597.06
2024-02-28T02:44:36.187Z,100596.16
2024-02-28T02:47:23.045Z,100598.72
2024-02-28T02:50:09.784Z,100598.84
2024-02-28T02:52:56.361Z,100608.31
2024-02-28T02:55:42.868Z,100606.66
2024-02-28T02:58:29.568Z,100604.88
2024-02-28T03:00:56.498Z,100607.53
2024-02-28T03:03:23.233Z,100608.44
2024-02-28T03:05:49.821Z,100617.03
2024-02-28T03:08:16.607Z,100609.19
2024-02-28T03:10:43.560Z,100610.97
2024-02-28T03:13:10.638Z,100604.94
2024-02-28T03:15:37.278Z,100606.66
2024-02-28T03:18:04.933Z,100609.28
2024-02-28T03:20:31.581Z,100615.31
2024-02-28T03:22:58.320Z,100619.63
2024-02-28T03:25:25.144Z,100620.53
2024-02-28T03:27:52.065Z,100621.47
2024-02-28T03:30:19.147Z,100626.53
2024-02-28T03:32:45.743Z,100625.66
2024-02-28T03:35:12.391Z,100629.09
2024-02-28T03:37:40.080Z,100637.72
2024-02-28T03:40:07.446Z,100637.72
2024-02-28T03:42:34.290Z,100636.84
2024-02-28T03:45:01.091Z,100641.19
2024-02-28T03:47:27.864Z,100640.38
2024-02-28T03:49:58.324Z,100640.31
2024-02-28T03:52:25.182Z,100642.88
2024-02-28T03:54:53.292Z,100650.69
2024-02-28T03:57:19.904Z,100644.66
2024-02-28T03:59:46.510Z,100645.56
2024-02-28T04:02:13.029Z,100647.25
2024-02-28T04:04:39.743Z,100656.72
2024-02-28T04:07:07.093Z,100653.31
2024-02-28T04:09:33.648Z,100655.88
2024-02-28T04:12:00.278Z,100664.53
2024-02-28T04:14:27.117Z,100661.94
2024-02-28T04:16:54.302Z,100658.53
2024-02-28T04:19:20.932Z,100667.97
2024-02-28T04:21:47.920Z,100667.09
2024-02-28T04:24:16.858Z,100659.38
2024-02-28T04:26:44.579Z,100666.25
2024-02-28T04:29:15.416Z,100671.47
2024-02-28T04:31:42.244Z,100673.19
2024-02-28T04:34:08.837Z,100670.59
2024-02-28T04:36:35.542Z,100669.75
2024-02-28T04:39:05.319Z,100679.19
2024-02-28T04:41:31.912Z,100672.31
2024-02-28T04:43:58.875Z,100680.06
2024-02-28T04:46:25.655Z,100684.34
2024-02-28T04:48:52.276Z,100683.44
2024-02-28T04:51:19.220Z,100687.78
2024-02-28T04:53:45.983Z,100690.34
2024-02-28T04:56:12.619Z,100699.81
2024-02-28T04:58:39.582Z,100699.81
2024-02-28T05:01:06.426Z,100698.09
2024-02-28T05:03:33.135Z,100698.94
2024-02-28T05:06:00.037Z,100700.66
2024-02-28T05:08:28.433Z,100698.13
2024-02-28T05:10:55.172Z,100709.28
2024-02-28T05:13:23.477Z,100696.41
2024-02-28T05:15:50.318Z,100705.81
2024-02-28T05:18:17.701Z,100703.25
2024-02-28T05:20:44.522Z,100706.69
2024-02-28T05:23:11.011Z,100708.41
2024-02-28T05:25:37.956Z,100704.13
2024-02-28T05:28:04.867Z,100705.84
2024-02-28T05:30:31.703Z,100719.56
2024-02-28T05:32:58.526Z,100718.72
2024-02-28T05:35:25.091Z,100717.88
2024-02-28T05:37:55.757Z,100722.16
2024-02-28T05:40:22.580Z,100737.59
2024-02-28T05:42:49.121Z,100741.03
2024-02-28T05:45:16.097Z,100740.19
2024-02-28T05:47:42.648Z,100742.78
2024-02-28T05:50:11.168Z,100755.66
2024-02-28T05:52:38.095Z,100762.50
2024-02-28T05:55:05.455Z,100760.78
2024-02-28T05:57:32.197Z,100762.50
2024-02-28T05:59:58.804Z,100770.25
2024-02-28T06:02:25.376Z,100771.09
2024-02-28T06:04:52.276Z,100774.53
2024-02-28T06:07:18.767Z,100769.38
2024-02-28T06:09:45.690Z,100775.38
2024-02-28T06:12:12.858Z,100756.50
2024-02-28T06:14:39.327Z,100764.19
2024-02-28T06:17:06.200Z,100762.47
2024-02-28T06:19:32.831Z,100773.66
2024-02-28T06:21:59.461Z,100776.19
2024-02-28T06:24:26.153Z,100780.50
2024-02-28T06:26:52.949Z,100780.50
2024-02-28T06:29:19.547Z,100782.22
2024-02-28T06:31:53.905Z,100787.38
2024-02-28T06:34:20.614Z,100785.66
2024-02-28T06:36:47.313Z,100779.66
2024-02-28T06:39:13.998Z,100785.66
2024-02-28T06:41:40.597Z,100795.09
2024-02-28T06:44:08.792Z,100800.25
2024-02-28T06:46:35.632Z,100801.13
2024-02-28T06:49:03.702Z,100800.28
2024-02-28T06:51:30.525Z,100808.00
2024-02-28T06:53:57.196Z,100815.72
2024-02-28T06:56:23.765Z,100816.59
2024-02-28T06:58:50.359Z,100814.00
2024-02-28T07:01:17.048Z,100811.41
2024-02-28T07:03:43.761Z,100814.81
2024-02-28T07:06:10.854Z,100810.56
2024-02-28T07:08:38.149Z,100809.72
2024-02-28T07:11:04.841Z,100802.00
2024-02-28T07:13:31.526Z,100808.03
2024-02-28T07:15:58.405Z,100813.16
2024-02-28T07:18:26.802Z,100806.25
2024-02-28T07:20:53.448Z,100797.66
2024-02-28T07:23:19.982Z,100793.41
2024-02-28T07:25:46.634Z,100796.00
2024-02-28T07:28:13.542Z,100791.72
2024-02-28T07:30:40.648Z,100801.16
2024-02-28T07:33:07.314Z,100799.44
2024-02-28T07:35:34.279Z,100800.28
2024-02-28T07:38:01.137Z,100799.44
2024-02-28T07:40:27.908Z,100792.59
2024-02-28T07:42:54.570Z,100796.84
2024-02-28T07:45:21.179Z,100804.59
2024-02-28T07:47:47.752Z,100811.44
2024-02-28T07:50:14.574Z,100810.56
2024-02-28T07:52:41.167Z,100818.31
2024-02-28T07:55:08.184Z,100822.59
2024-02-28T07:57:34.870Z,100814.00
2024-02-28T08:00:01.959Z,100814.84
2024-02-28T08:02:40.290Z,100825.16
2024-02-28T08:05:08.805Z,100819.06
2024-02-28T08:07:35.785Z,100829.41
2024-02-28T08:10:02.745Z,100820.72
2024-02-28T08:12:29.338Z,100826.66
2024-02-28T08:14:56.072Z,100826.56
2024-02-28T08:17:22.589Z,100834.22
2024-02-28T08:19:49.164Z,100836.75
2024-02-28T08:22:15.880Z,100842.78
2024-02-28T08:24:42.890Z,100845.38
2024-02-28T08:27:09.568Z,100841.16
2024-02-28T08:29:36.828Z,100842.88
2024-02-28T08:32:04.284Z,100854.84
2024-02-28T08:34:31.018Z,100862.66
2024-02-28T08:36:57.736Z,100861.59
2024-02-28T08:39:24.835Z,100869.28
2024-02-28T08:41:51.474Z,100875.34
2024-02-28T08:44:19.101Z,100885.69
2024-02-28T08:46:48.037Z,100883.06
2024-02-28T08:49:15.278Z,100889.16
2024-02-28T08:51:42.359Z,100886.38
2024-02-28T08:54:09.602Z,100893.94
2024-02-28T08:56:38.232Z,100898.94
2024-02-28T08:59:06.576Z,100899.63
2024-02-28T09:01:35.000Z,100898.81
2024-02-28T09:04:01.972Z,100902.84
2024-02-28T09:06:28.917Z,100902.91
2024-02-28T09:08:55.606Z,100903.47
2024-02-28T09:11:22.974Z,100904.84
2024-02-28T09:13:49.472Z,100911.41
2024-02-28T09:16:16.096Z,100926.03
2024-02-28T09:18:43.333Z,100917.91
2024-02-28T09:21:10.224Z,100923.66
2024-02-28T09:23:37.098Z,100927.94
2024-02-28T09:26:06.780Z,100932.91
2024-02-28T09:28:33.658Z,100937.16
2024-02-28T09:31:01.091Z,100931.28
2024-02-28T09:33:29.225Z,100930.09
2024-02-28T09:35:55.897Z,100934.25
2024-02-28T09:38:23.133Z,100925.22
2024-02-28T09:40:50.101Z,100931.22
2024-02-28T09:43:25.639Z,100945.38
2024-02-28T09:45:52.662Z,100945.84
2024-02-28T09:48:20.175Z,100941.47
2024-02-28T09:50:47.065Z,100955.91
2024-02-28T09:53:13.629Z,100966.78
2024-02-28T09:55:40.355Z,100960.16
2024-02-28T09:58:08.994Z,100966.34
2024-02-28T10:00:36.473Z,100969.28
2024-02-28T10:03:05.241Z,100970.56
2024-02-28T10:05:34.405Z,100964.19
2024-02-28T10:08:00.949Z,100967.25
2024-02-28T10:10:28.643Z,100971.13
2024-02-28T10:12:55.516Z,100974.16
2024-02-28T10:15:23.141Z,100982.38
2024-02-28T10:17:50.112Z,100989.25
2024-02-28T10:20:16.806Z,100979.13
2024-02-28T10:22:43.598Z,100974.72
2024-02-28T10:25:10.596Z,100971.94
2024-02-28T10:27:37.369Z,100977.03
2024-02-28T10:30:08.557Z,100976.06
2024-02-28T10:32:37.170Z,100978.16
2024-02-28T10:35:04.732Z,100977.41
2024-02-28T10:37:32.448Z,100979.13
2024-02-28T10:39:59.591Z,100974.66
2024-02-28T10:42:31.677Z,100982.00
2024-02-28T10:45:10.299Z,100984.00
2024-02-28T10:47:51.393Z,100979.97
2024-02-28T10:50:18.837Z,100983.44
2024-02-28T10:52:51.901Z,100986.00
2024-02-28T10:55:26.478Z,100993.88
2024-02-28T10:58:02.525Z,101000.66
2024-02-28T11:00:29.623Z,101000.22
2024-02-28T11:02:59.310Z,100989.78
2024-02-28T11:05:36.777Z,100997.22
2024-02-28T11:08:03.450Z,100998.31
2024-02-28T11:10:36.502Z,100996.97
2024-02-28T11:13:03.170Z,100998.28
2024-02-28T11:15:29.957Z,100992.81
2024-02-28T11:18:08.071Z,100992.66
2024-02-28T11:20:35.240Z,100985.28
2024-02-28T11:23:01.815Z,100974.09
2024-02-28T11:25:28.411Z,100986.19
2024-02-28T11:27:55.096Z,100975.06
2024-02-28T11:30:22.800Z,100985.84
2024-02-28T11:32:49.501Z,100981.78
2024-02-28T11:35:16.483Z,100982.63
2024-02-28T11:37:47.570Z,100986.44
2024-02-28T11:40:15.331Z,100975.41
2024-02-28T11:42:41.973Z,100972.38
2024-02-28T11:45:12.231Z,100969.28
2024-02-28T11:47:38.875Z,100963.41
2024-02-28T11:50:09.426Z,100962.53
2024-02-28T11:52:37.470Z,100961.25
2024-02-28T11:55:05.439Z,100951.09
2024-02-28T11:57:34.745Z,100949.97
2024-02-28T12:00:10.461Z,100951.41
2024-02-28T12:02:37.380Z,100944.78
2024-02-28T12:05:07.399Z,100935.59
2024-02-28T12:07:34.105Z,100944.47
2024-02-28T12:10:01.302Z,100933.78
2024-02-28T12:12:31.201Z,100934.56
2024-02-28T12:15:01.406Z,100927.06
2024-02-28T12:17:28.137Z,100937.91
2024-02-28T12:19:56.301Z,100928.69
2024-02-28T12:22:23.323Z,100919.94
2024-02-28T12:24:49.888Z,100916.91
2024-02-28T12:27:16.825Z,100913.59
2024-02-28T12:29:43.390Z,100921.50
2024-02-28T12:32:10.686Z,100924.72
2024-02-28T12:34:37.240Z,100923.50
2024-02-28T12:37:05.422Z,100919.06
2024-02-28T12:39:35.212Z,100911.31
2024-02-28T12:42:02.233Z,100906.41
2024-02-28T12:44:28.795Z,100918.78
2024-02-28T12:46:55.353Z,100916.22
2024-02-28T12:49:21.911Z,100910.44
2024-02-28T12:51:50.426Z,100902.69
2024-02-28T12:54:17.255Z,100908.38
2024-02-28T12:56:44.394Z,100909.84
2024-02-28T12:59:12.058Z,100903.19
2024-02-28T13:01:39.262Z,100895.38
2024-02-28T13:04:06.683Z,100895.84
2024-02-28T13:06:33.518Z,100896.25
2024-02-28T13:09:00.221Z,100899.78
2024-02-28T13:11:27.049Z,100886.09
2024-02-28T13:13:54.089Z,100890.19
2024-02-28T13:16:22.898Z,100883.84
2024-02-28T13:18:49.560Z,100884.16
2024-02-28T13:21:16.483Z,100870.81
2024-02-28T13:23:44.320Z,100870.16
2024-02-28T13:26:18.985Z,100879.97
2024-02-28T13:28:48.460Z,100878.41
2024-02-28T13:31:17.484Z,100864.38
2024-02-28T13:33:44.196Z,100855.47
2024-02-28T13:36:10.887Z,100854.91
2024-02-28T13:38:38.111Z,100849.72
2024-02-28T13:41:05.117Z,100857.41
2024-02-28T13:43:32.013Z,100849.72
2024-02-28T13:46:01.592Z,100852.50
2024-02-28T13:48:30.161Z,100840.47
2024-02-28T13:50:57.425Z,100841.63
2024-02-28T13:53:25.801Z,100839.38
2024-02-28T13:55:53.152Z,100825.63
2024-02-28T13:58:19.864Z,100827.97
2024-02-28T14:00:48.531Z,100823.66
2024-02-28T14:03:16.034Z,100826.31
2024-02-28T14:05:42.941Z,100836.69
2024-02-28T14:08:10.965Z,100830.38
2024-02-28T14:10:38.379Z,100832.91
2024-02-28T14:13:05.487Z,100840.44
2024-02-28T14:15:32.241Z,100827.13
2024-02-28T14:17:59.134Z,100826.06
2024-02-28T14:20:25.842Z,100832.44
2024-02-28T14:22:53.178Z,100830.03
2024-02-28T14:25:22.256Z,100822.75
2024-02-28T14:27:49.441Z,100823.81
2024-02-28T14:30:16.188Z,100825.41
2024-02-28T14:32:44.574Z,100825.94
2024-02-28T14:35:12.171Z,100822.41
2024-02-28T14:37:40.935Z,100827.88
2024-02-28T14:40:12.116Z,100822.63
2024-02-28T14:42:40.760Z,100821.16
2024-02-28T14:45:09.640Z,100822.16
2024-02-28T14:47:37.461Z,100822.63
2024-02-28T14:50:11.369Z,100823.81
2024-02-28T14:52:42.583Z,100824.19
2024-02-28T14:55:10.321Z,100828.78
2024-02-28T14:57:40.637Z,100825.44
2024-02-28T15:00:15.222Z,100822.03
2024-02-28T15:02:42.822Z,100816.19
2024-02-28T15:05:09.619Z,100822.47
2024-02-28T15:07:37.145Z,100819.28
2024-02-28T15:10:06.083Z,100817.69
2024-02-28T15:12:34.643Z,100816.81
2024-02-28T15:15:04.081Z,100810.13
2024-02-28T15:17:31.163Z,100823.59
2024-02-28T15:19:57.724Z,100813.91
2024-02-28T15:22:24.588Z,100807.91
2024-02-28T15:24:51.471Z,100817.53
2024-02-28T15:27:18.479Z,100816.53
2024-02-28T15:29:45.118Z,100819.59
2024-02-28T15:32:11.733Z,100818.16
2024-02-28T15:34:39.071Z,100822.84
2024-02-28T15:37:06.064Z,100821.41
2024-02-28T15:39:32.940Z,100808.03
2024-02-28T15:42:01.764Z,100810.59
2024-02-28T15:44:28.617Z,100814.84
2024-02-28T15:46:55.219Z,100823.75
2024-02-28T15:49:29.056Z,100821.84
2024-02-28T15:52:04.543Z,100829.28
2024-02-28T15:54:31.225Z,100820.22
2024-02-28T15:57:00.837Z,100818.44
2024-02-28T15:59:27.641Z,100822.66
2024-02-28T16:01:54.622Z,100821.97
2024-02-28T16:04:21.261Z,100825.97
2024-02-28T16:06:47.988Z,100825.34
2024-02-28T16:09:15.895Z,100826.13
2024-02-28T16:11:46.329Z,100826.47
2024-02-28T16:14:14.645Z,100827.03
2024-02-28T16:16:41.677Z,100823.41
2024-02-28T16:19:15.589Z,100838.66
2024-02-28T16:21:50.790Z,100833.56
2024-02-28T16:24:17.364Z,100836.06
2024-02-28T16:26:44.147Z,100837.22
2024-02-28T16:29:10.944Z,100840.19
2024-02-28T16:31:37.591Z,100839.41
2024-02-28T16:34:05.267Z,100832.03
2024-02-28T16:36:32.544Z,100839.88
2024-02-28T16:38:59.546Z,100835.28
2024-02-28T16:41:26.343Z,100844.69
2024-02-28T16:43:56.139Z,100841.22
2024-02-28T16:46:23.106Z,100836.84
2024-02-28T16:48:49.814Z,100848.59
2024-02-28T16:51:18.116Z,100849.09
2024-02-28T16:53:46.235Z,100843.13
2024-02-28T16:56:13.190Z,100848.53
2024-02-28T16:58:44.006Z,100849.84
2024-02-28T17:01:11.301Z,100858.78
2024-02-28T17:03:38.314Z,100860.16
2024-02-28T17:06:06.050Z,100853.50
2024-02-28T17:08:36.389Z,100864.28
2024-02-28T17:11:04.805Z,100865.34
2024-02-28T17:13:32.265Z,100862.19
2024-02-28T17:16:04.025Z,100864.38
2024-02-28T17:18:31.699Z,100861.16
2024-02-28T17:20:59.669Z,100870.16
2024-02-28T17:23:29.069Z,100872.84
2024-02-28T17:25:56.455Z,100866.97
2024-02-28T17:28:23.467Z,100869.69
2024-02-28T17:30:50.114Z,100875.16
2024-02-28T17:33:17.129Z,100869.56
2024-02-28T17:35:45.161Z,100870.63
2024-02-28T17:38:12.003Z,100867.38
2024-02-28T17:40:38.592Z,100874.59
2024-02-28T17:43:05.571Z,100875.38
2024-02-28T17:45:32.309Z,100881.97
2024-02-28T17:47:59.468Z,100884.03
2024-02-28T17:50:26.341Z,100888.69
2024-02-28T17:52:53.064Z,100888.16
2024-02-28T17:55:19.854Z,100888.63
2024-02-28T17:57:47.373Z,100888.75
2024-02-28T18:00:14.541Z,100892.50
2024-02-28T18:02:42.346Z,100895.31
2024-02-28T18:05:10.427Z,100893.00
2024-02-28T18:07:37.521Z,100888.97
2024-02-28T18:10:08.011Z,100888.25
2024-02-28T18:12:35.020Z,100891.09
2024-02-28T18:15:01.764Z,100881.44
2024-02-28T18:17:29.250Z,100879.28
2024-02-28T18:19:55.944Z,100878.59
2024-02-28T18:22:22.822Z,100884.63
2024-02-28T18:24:49.807Z,100882.28
2024-02-28T18:27:16.362Z,100881.06
2024-02-28T18:29:43.320Z,100877.72
2024-02-28T18:32:10.260Z,100876.91
2024-02-28T18:34:36.907Z,100879.59
2024-02-28T18:37:05.090Z,100878.13
2024-02-28T18:39:31.921Z,100874.41
2024-02-28T18:41:59.758Z,100874.50
2024-02-28T18:44:27.541Z,100876.25
2024-02-28T18:46:54.739Z,100868.38
2024-02-28T18:49:21.480Z,100872.69
2024-02-28T18:51:48.130Z,100875.41
2024-02-28T18:54:14.775Z,100868.69
2024-02-28T18:56:41.691Z,100866.13
2024-02-28T18:59:08.199Z,100869.72
2024-02-28T19:01:34.862Z,100866.94
2024-02-28T19:04:01.847Z,100859.94
2024-02-28T19:06:28.559Z,100863.50
2024-02-28T19:08:55.192Z,100868.09
2024-02-28T19:11:22.294Z,100869.13
2024-02-28T19:13:50.441Z,100864.50
2024-02-28T19:16:19.047Z,100868.59
2024-02-28T19:18:45.906Z,100868.97
2024-02-28T19:21:12.640Z,100873.88
2024-02-28T19:23:41.608Z,100876.22
2024-02-28T19:26:08.544Z,100881.28
2024-02-28T19:28:35.216Z,100881.09
2024-02-28T19:31:03.184Z,100874.13
2024-02-28T19:33:30.090Z,100869.06
2024-02-28T19:35:56.962Z,100869.19
2024-02-28T19:38:23.609Z,100871.06
2024-02-28T19:40:50.328Z,100870.13
2024-02-28T19:43:16.825Z,100875.28
2024-02-28T19:45:43.892Z,100876.56
2024-02-28T19:48:11.029Z,100879.09
2024-02-28T19:50:37.603Z,100874.78
2024-02-28T19:53:04.448Z,100866.28
2024-02-28T19:55:31.211Z,100866.31
2024-02-28T19:57:58.060Z,100874.69
2024-02-28T20:00:24.634Z,100868.31
2024-02-28T20:02:51.293Z,100872.72
2024-02-28T20:05:21.020Z,100873.63
2024-02-28T20:07:48.969Z,100873.91
2024-02-28T20:10:17.120Z,100873.88
2024-02-28T20:12:43.766Z,100880.44
2024-02-28T20:15:10.726Z,100884.69
2024-02-28T20:17:37.404Z,100882.97
2024-02-28T20:20:05.289Z,100875.56
2024-02-28T20:22:31.968Z,100874.81
2024-02-28T20:24:58.783Z,100878.97
2024-02-28T20:27:25.766Z,100874.94
2024-02-28T20:29:52.351Z,100869.66
2024-02-28T20:32:19.587Z,100876.63
2024-02-28T20:34:46.177Z,100889.81
2024-02-28T20:37:12.937Z,100890.81
2024-02-28T20:39:40.381Z,100894.38
2024-02-28T20:42:07.425Z,100905.63
2024-02-28T20:44:34.032Z,100890.13
2024-02-28T20:47:00.720Z,100888.59
2024-02-28T20:49:27.350Z,100882.56
2024-02-28T20:51:56.413Z,100892.19
2024-02-28T20:54:23.093Z,100882.63
2024-02-28T20:56:53.863Z,100881.94
2024-02-28T20:59:27.515Z,100882.78
2024-02-28T21:01:54.541Z,100881.97
2024-02-28T21:04:22.993Z,100888.91
2024-02-28T21:06:50.788Z,100888.09
2024-02-28T21:09:17.830Z,100886.50
2024-02-28T21:11:44.358Z,100889.13
2024-02-28T21:14:11.262Z,100881.41
2024-02-28T21:16:37.989Z,100884.00
2024-02-28T21:19:04.665Z,100871.09
2024-02-28T21:21:31.628Z,100875.41
2024-02-28T21:23:58.542Z,100870.13
2024-02-28T21:26:25.603Z,100856.66
2024-02-28T21:28:52.249Z,100854.03
2024-02-28T21:31:20.146Z,100849.72
2024-02-28T21:33:46.895Z,100847.06
2024-02-28T21:36:13.408Z,100844.63
2024-02-28T21:38:40.123Z,100856.59
2024-02-28T21:41:06.687Z,100855.66
2024-02-28T21:43:33.580Z,100851.34
2024-02-28T21:46:00.186Z,100845.44
2024-02-28T21:48:26.850Z,100838.56
2024-02-28T21:50:53.613Z,100836.88
2024-02-28T21:53:20.170Z,100836.00
2024-02-28T21:55:46.829Z,100836.09
2024-02-28T21:58:15.630Z,100835.38
2024-02-28T22:00:42.704Z,100831.94
2024-02-28T22:03:09.257Z,100830.31
2024-02-28T22:05:35.918Z,100829.31
2024-02-28T22:08:04.210Z,100836.25
2024-02-28T22:10:30.853Z,100832.06
2024-02-28T22:12:58.105Z,100828.66
2024-02-28T22:15:25.141Z,100821.78
2024-02-28T22:17:52.006Z,100822.69
2024-02-28T22:20:18.635Z,100821.81
2024-02-28T22:22:45.340Z,100818.38
2024-02-28T22:25:12.473Z,100814.88
2024-02-28T22:27:40.019Z,100807.09
2024-02-28T22:30:07.173Z,100806.44
2024-02-28T22:32:35.350Z,100792.56
2024-02-28T22:35:02.143Z,100794.28
2024-02-28T22:37:28.834Z,100796.88
2024-02-28T22:39:55.816Z,100807.34
2024-02-28T22:42:22.813Z,100815.84
2024-02-28T22:44:49.708Z,100808.97
2024-02-28T22:47:16.632Z,100814.88
2024-02-28T22:49:43.347Z,100801.94
2024-02-28T22:52:10.345Z,100803.59
2024-02-28T22:54:37.097Z,100807.00
2024-02-28T22:57:04.190Z,100794.03
2024-02-28T22:59:30.815Z,100797.56
2024-02-28T23:01:57.452Z,100784.53
2024-02-28T23:04:24.421Z,100783.75
2024-02-28T23:06:51.290Z,100780.25
2024-02-28T23:09:18.153Z,100782.09
2024-02-28T23:11:45.739Z,100785.59
2024-02-28T23:14:13.006Z,100781.25
2024-02-28T23:16:40.341Z,100773.63
2024-02-28T23:19:07.120Z,100775.38
2024-02-28T23:21:38.922Z,100777.09
2024-02-28T23:24:07.375Z,100784.03
2024-02-28T23:26:34.665Z,100775.47
2024-02-28T23:29:01.345Z,100774.56
2024-02-28T23:31:28.241Z,100772.03
2024-02-28T23:33:55.073Z,100774.50
2024-02-28T23:36:21.700Z,100774.47
2024-02-28T23:38:48.366Z,100773.59
2024-02-28T23:41:16.556Z,100775.44
2024-02-28T23:43:43.318Z,100766.84
2024-02-28T23:46:11.285Z,100773.72
2024-02-28T23:48:38.162Z,100765.09
2024-02-28T23:51:05.307Z,100761.75
2024-02-28T23:53:31.907Z,100760.00
2024-02-28T23:55:58.567Z,100755.59
2024-02-28T23:58:25.837Z,100760.00
